Myrtle Beach International Airport
KMYR : now visible

Airfield :











YOU CAN JOIN US ON...

 
LOGIN :

Register | Disclaimer

   EN    FR    IT 

 









Legend :    VFR   Marginal VFR   IFR   Intensive IFR   Very Intensive IFR
Visi :
Ceiling :
>= 8 km
>= 3000ft
5 to 8 km
1000 to 3000 ft
1500m to 5 km
500 to 1000 ft
800 to 1500m
200 to 500 ft
< 800m
< 200 ft
Symbols :   Thunderstorms  Fog  Heavy snow  Heavy precipitations  Wind > 20 kt






- Airport Elevation : 25 ft
- IATA code : MYR


KMYR - Myrtle Beach International

CURRENT METAR :
  • 231356Z 00000KT 10SM CLR 07/01 A3035 RMK AO2 SLP279 T00670006

EXPIRED METARs :
  • 231256Z 00000KT 10SM CLR 02/02 A3035 RMK AO2 SLP275 T00220017
  • 231156Z 35003KT 10SM CLR M01/M02 A3033 RMK AO2 SLP272 T10111017 10017 21017 50003

TAF KMYR
Valid from the 23 at 12:00 until the 24 at 12:00 UTC


231126Z 2312/2412 00000KT P6SM SKC
FM231800 16004KT P6SM FEW250
FM241100 00000KT P6SM BKN080



MET'MAP, your aeronautical weather chart ! - Copyright ORBIFLY December 2007 - Disclaimer

ORBIFLY MET'MAP TEAM :

Programming & Development : Alexandra Zaïnal
Concept & original design : Baudouin d'Aumeries
Assistance for programming : Marc-Olivier Méhu
Technical & hardware support : Manuel Goepfert

Contact : metmap@orbifly.com




SOURCES & CREDITS :

   NOAA       Earth
Advisory